Time;durP1;ratioP1;P1;durP2;ratioP2;P2;SDS_P1;SDS_P2;PMS_P1;PMS_P2;Temp;Humidity;BMP_temperature;BMP_pressure;BME280_temperature;BME280_humidity;BME280_pressure;Samples;Min_cycle;Max_cycle;Signal;HPM_P1;HPM_P2
2023/07/10 00:00:20;;;;;;;25.45;16.95;;;19.20;99.90;;;;;;6244447;23;20024;-62
2023/07/10 00:02:48;;;;;;;30.45;17.75;;;19.20;99.90;;;;;;6246316;23;20031;-61
2023/07/10 00:05:18;;;;;;;30.05;17.83;;;19.20;99.90;;;;;;6246109;23;20500;-62
2023/07/10 00:07:45;;;;;;;26.35;16.33;;;19.10;99.90;;;;;;6245642;23;20078;-61
2023/07/10 00:10:14;;;;;;;32.53;18.50;;;19.10;99.90;;;;;;6246532;23;20020;-61
2023/07/10 00:12:43;;;;;;;27.77;17.60;;;19.10;99.90;;;;;;6245805;23;20516;-60
2023/07/10 00:15:16;;;;;;;29.85;19.88;;;19.10;99.90;;;;;;6245065;23;20047;-61
2023/07/10 00:17:45;;;;;;;24.70;18.05;;;19.10;99.90;;;;;;6246249;23;20074;-61
2023/07/10 00:20:15;;;;;;;26.98;17.90;;;19.20;99.90;;;;;;6246057;23;20020;-61
2023/07/10 00:22:42;;;;;;;;;;;19.10;99.90;;;;;;6245629;22;20020;-61
2023/07/10 00:25:10;;;;;;;22.13;17.00;;;19.10;99.90;;;;;;6244757;23;19920;-62
2023/07/10 00:27:37;;;;;;;20.80;14.65;;;19.10;99.90;;;;;;6246033;23;20027;-62
2023/07/10 00:30:15;;;;;;;23.80;14.45;;;19.00;99.90;;;;;;6245471;23;20028;-62
2023/07/10 00:32:44;;;;;;;24.13;15.35;;;19.10;99.90;;;;;;6244204;23;20031;-62
2023/07/10 00:35:11;;;;;;;24.25;14.80;;;19.10;99.90;;;;;;6245052;22;20024;-63
2023/07/10 00:37:38;;;;;;;23.00;14.18;;;19.10;99.90;;;;;;6244138;23;20028;-62
2023/07/10 00:40:18;;;;;;;25.73;16.05;;;19.10;99.90;;;;;;6246194;23;20031;-62
2023/07/10 00:42:46;;;;;;;21.55;14.75;;;19.10;99.90;;;;;;6244849;23;20074;-62
2023/07/10 00:45:15;;;;;;;22.77;15.10;;;19.10;99.90;;;;;;6245717;23;20520;-62
2023/07/10 00:47:54;;;;;;;30.42;16.13;;;19.10;99.90;;;;;;6245899;23;20461;-62
2023/07/10 00:50:28;;;;;;;27.73;17.27;;;19.10;99.90;;;;;;6243473;23;20028;-62
2023/07/10 00:52:56;;;;;;;33.05;18.92;;;19.10;99.90;;;;;;6245866;23;20078;-62
2023/07/10 00:55:29;;;;;;;28.27;19.00;;;19.00;99.90;;;;;;6245481;23;20454;-62
2023/07/10 00:58:15;;;;;;;36.40;19.67;;;19.00;99.90;;;;;;6245133;23;20024;-61
2023/07/10 01:01:00;;;;;;;37.70;21.02;;;19.00;99.90;;;;;;6245931;23;20019;-62
2023/07/10 01:03:28;;;;;;;30.40;20.92;;;19.10;99.90;;;;;;6245213;22;20074;-62
2023/07/10 01:05:56;;;;;;;42.90;23.02;;;19.10;99.90;;;;;;6243924;23;20024;-62
2023/07/10 01:08:24;;;;;;;44.45;22.88;;;19.10;99.90;;;;;;6243950;23;20024;-62
2023/07/10 01:10:51;;;;;;;37.33;21.58;;;19.10;99.90;;;;;;6245048;23;20086;-62
2023/07/10 01:13:18;;;;;;;36.20;21.85;;;19.10;99.90;;;;;;6243847;23;20024;-62
2023/07/10 01:15:45;;;;;;;35.55;23.25;;;19.10;99.90;;;;;;6243847;23;20050;-62
2023/07/10 01:18:14;;;;;;;33.15;20.58;;;19.10;99.90;;;;;;6243055;23;20032;-62
2023/07/10 01:20:46;;;;;;;31.23;19.90;;;19.10;99.90;;;;;;6243966;23;20020;-62
2023/07/10 01:23:16;;;;;;;32.08;19.52;;;19.00;99.90;;;;;;6245782;23;20095;-62
2023/07/10 01:25:48;;;;;;;29.08;19.02;;;19.00;99.90;;;;;;6243059;23;20020;-62
2023/07/10 01:28:17;;;;;;;29.35;18.73;;;18.90;99.90;;;;;;6245276;23;20082;-62
2023/07/10 01:30:46;;;;;;;25.10;17.35;;;18.90;99.90;;;;;;6243907;23;20024;-62
2023/07/10 01:33:17;;;;;;;25.63;18.17;;;18.80;99.90;;;;;;6243369;23;20051;-62
2023/07/10 01:35:46;;;;;;;26.27;17.27;;;18.80;99.90;;;;;;6243631;23;20016;-62
2023/07/10 01:38:15;;;;;;;35.00;17.53;;;18.70;99.90;;;;;;6245305;23;20540;-61
2023/07/10 01:40:48;;;;;;;28.52;18.10;;;18.70;99.90;;;;;;6242786;23;20020;-60
2023/07/10 01:43:15;;;;;;;31.45;17.90;;;18.70;99.90;;;;;;6245065;23;20024;-60
2023/07/10 01:45:44;;;;;;;26.80;16.77;;;18.60;99.90;;;;;;6244626;23;20469;-61
2023/07/10 01:48:11;;;;;;;26.08;17.65;;;18.60;99.90;;;;;;6245084;23;20473;-60
2023/07/10 01:50:39;;;;;;;27.08;17.70;;;18.60;99.90;;;;;;6243614;23;20024;-61
2023/07/10 01:53:08;;;;;;;25.73;17.38;;;18.60;99.90;;;;;;6242822;23;20409;-62
2023/07/10 01:55:43;;;;;;;27.20;18.48;;;18.60;99.90;;;;;;6243506;23;20458;-61
2023/07/10 01:58:11;;;;;;;32.30;18.42;;;18.50;99.90;;;;;;6245485;23;20541;-61
2023/07/10 02:00:38;;;;;;;28.80;19.65;;;18.50;99.90;;;;;;6242820;23;20056;-61
2023/07/10 02:03:05;;;;;;;32.13;21.40;;;18.50;99.90;;;;;;6245000;23;20485;-61
2023/07/10 02:05:32;;;;;;;33.63;20.98;;;18.40;99.90;;;;;;6244983;23;20458;-61
2023/07/10 02:07:59;;;;;;;34.25;22.88;;;18.40;99.90;;;;;;6243587;23;20024;-62
2023/07/10 02:10:26;;;;;;;33.33;22.13;;;18.40;99.90;;;;;;6243583;23;20023;-62
2023/07/10 02:12:54;;;;;;;29.00;22.52;;;18.40;99.90;;;;;;6245501;23;20024;-61
2023/07/10 02:15:21;;;;;;;32.88;23.10;;;18.40;99.90;;;;;;6244501;23;20031;-61
2023/07/10 02:17:48;;;;;;;35.90;22.13;;;18.40;99.90;;;;;;6243525;23;20028;-62
2023/07/10 02:20:15;;;;;;;38.22;22.30;;;18.40;99.90;;;;;;6245016;23;20024;-61
2023/07/10 02:22:42;;;;;;;32.40;23.10;;;18.40;99.90;;;;;;6242774;23;20035;-60
2023/07/10 02:25:09;;;;;;;38.88;23.98;;;18.40;99.90;;;;;;6245402;23;20028;-60
2023/07/10 02:27:36;;;;;;;33.15;23.30;;;18.40;99.90;;;;;;6244729;23;20127;-61
2023/07/10 02:30:06;;;;;;;30.25;21.92;;;18.30;99.90;;;;;;6243532;23;20450;-61
2023/07/10 02:32:33;;;;;;;34.35;23.73;;;18.30;99.90;;;;;;6243483;23;20331;-61
2023/07/10 02:35:00;;;;;;;31.48;22.05;;;18.30;99.90;;;;;;6244129;23;20615;-61
2023/07/10 02:37:26;;;;;;;30.40;22.48;;;18.30;99.90;;;;;;6245274;23;20063;-60
2023/07/10 02:39:53;;;;;;;37.03;23.52;;;18.30;99.90;;;;;;6243368;23;20066;-61
2023/07/10 02:42:20;;;;;;;35.08;22.45;;;18.30;99.90;;;;;;6244362;23;20032;-62
2023/07/10 02:44:47;;;;;;;25.17;19.45;;;18.30;99.90;;;;;;6245203;23;20035;-61
2023/07/10 02:47:15;;;;;;;28.23;19.30;;;18.30;99.90;;;;;;6245332;23;20016;-62
2023/07/10 02:49:42;;;;;;;30.50;20.73;;;18.30;99.90;;;;;;6244253;23;20024;-62
2023/07/10 02:52:09;;;;;;;30.25;18.05;;;18.30;99.90;;;;;;6243969;23;20374;-62
2023/07/10 02:54:36;;;;;;;27.13;17.63;;;18.30;99.90;;;;;;6246789;23;20070;-66
2023/07/10 02:57:03;;;;;;;19.92;16.90;;;18.30;99.90;;;;;;6246048;23;20023;-67
2023/07/10 02:59:30;;;;;;;25.65;16.48;;;18.30;99.90;;;;;;6245014;23;20031;-66
2023/07/10 03:01:59;;;;;;;21.63;15.43;;;18.30;99.90;;;;;;6247128;23;20363;-67
2023/07/10 03:04:28;;;;;;;23.73;15.50;;;18.30;99.90;;;;;;6246316;23;20272;-62
2023/07/10 03:06:55;;;;;;;20.42;14.15;;;18.30;99.90;;;;;;6246992;22;20016;-62
2023/07/10 03:09:22;;;;;;;21.52;14.82;;;18.30;99.90;;;;;;6246877;23;20027;-61
2023/07/10 03:11:48;;;;;;;21.20;15.80;;;18.30;99.90;;;;;;6246401;23;20020;-62
2023/07/10 03:14:15;;;;;;;26.77;16.02;;;18.30;99.90;;;;;;6246760;23;20324;-61
2023/07/10 03:16:42;;;;;;;18.05;14.38;;;18.30;99.90;;;;;;6244794;23;20020;-60
2023/07/10 03:19:09;;;;;;;20.60;14.93;;;18.20;99.90;;;;;;6245964;23;20020;-62
2023/07/10 03:21:38;;;;;;;19.23;14.75;;;18.20;99.90;;;;;;6246523;23;20520;-61
2023/07/10 03:24:05;;;;;;;26.70;16.17;;;18.20;99.90;;;;;;6245914;23;20028;-62
2023/07/10 03:26:32;;;;;;;22.88;15.57;;;18.20;99.90;;;;;;6246458;22;20024;-66
2023/07/10 03:29:04;;;;;;;21.08;13.75;;;18.20;99.90;;;;;;6246278;23;20502;-66
2023/07/10 03:31:32;;;;;;;16.83;13.15;;;18.20;99.90;;;;;;6243707;23;20078;-62
2023/07/10 03:33:59;;;;;;;18.48;14.70;;;18.20;99.90;;;;;;6244543;23;20024;-61
2023/07/10 03:36:26;;;;;;;19.80;13.60;;;18.20;99.90;;;;;;6244390;23;20016;-60
2023/07/10 03:38:54;;;;;;;23.73;14.27;;;18.20;99.90;;;;;;6245920;23;20020;-61
2023/07/10 03:41:22;;;;;;;18.83;14.38;;;18.20;99.90;;;;;;6244379;23;20032;-61
2023/07/10 03:43:49;;;;;;;20.05;14.25;;;18.30;99.90;;;;;;6245071;23;20028;-61
2023/07/10 03:46:16;;;;;;;23.90;13.65;;;18.30;99.90;;;;;;6243966;23;20027;-60
2023/07/10 03:48:43;;;;;;;16.70;12.95;;;18.30;99.90;;;;;;6244895;23;20024;-61
2023/07/10 03:51:11;;;;;;;15.82;12.63;;;18.30;99.90;;;;;;6246576;23;20101;-61
2023/07/10 03:53:39;;;;;;;15.70;12.57;;;18.30;99.90;;;;;;6244116;23;20070;-61
2023/07/10 03:56:08;;;;;;;18.50;12.50;;;18.30;99.90;;;;;;6245991;23;20047;-60
2023/07/10 03:58:38;;;;;;;16.38;11.20;;;18.30;99.90;;;;;;6244695;23;20020;-61
2023/07/10 04:01:05;;;;;;;19.23;12.32;;;18.30;99.90;;;;;;6245405;23;20470;-64
2023/07/10 04:03:34;;;;;;;13.30;10.30;;;18.30;99.90;;;;;;6244499;23;20362;-66
2023/07/10 04:06:01;;;;;;;17.15;11.82;;;18.20;99.90;;;;;;6246342;23;20032;-66
2023/07/10 04:08:30;;;;;;;13.93;10.68;;;18.30;99.90;;;;;;6243974;23;20358;-65
2023/07/10 04:10:59;;;;;;;15.48;11.38;;;18.20;99.90;;;;;;6244602;23;20331;-65
2023/07/10 04:13:28;;;;;;;16.05;10.43;;;18.20;99.90;;;;;;6243807;23;20047;-66
2023/07/10 04:16:00;;;;;;;13.40;9.93;;;18.20;99.90;;;;;;6246241;23;20024;-65
2023/07/10 04:18:29;;;;;;;14.82;9.38;;;18.20;99.90;;;;;;6244492;23;20472;-65
2023/07/10 04:20:56;;;;;;;13.52;8.98;;;18.20;99.90;;;;;;6243692;23;20103;-65
2023/07/10 04:23:23;;;;;;;11.48;8.68;;;18.20;99.90;;;;;;6246387;23;20027;-65
2023/07/10 04:25:50;;;;;;;11.35;8.23;;;18.20;99.90;;;;;;6244331;23;20029;-65
2023/07/10 04:28:17;;;;;;;12.85;8.05;;;18.20;99.90;;;;;;6245499;23;20020;-66
2023/07/10 04:30:46;;;;;;;10.13;7.50;;;18.20;99.90;;;;;;6244324;23;20020;-66
2023/07/10 04:33:14;;;;;;;12.65;7.53;;;18.30;99.90;;;;;;6246179;23;20020;-66
2023/07/10 04:35:41;;;;;;;12.48;7.68;;;18.30;99.90;;;;;;6243493;23;20024;-66
2023/07/10 04:38:08;;;;;;;11.80;7.45;;;18.40;99.90;;;;;;6244415;23;20342;-66
2023/07/10 04:40:35;;;;;;;13.80;9.35;;;18.50;99.90;;;;;;6246029;23;20020;-62
2023/07/10 04:43:04;;;;;;;12.45;8.55;;;18.50;99.90;;;;;;6244346;23;20381;-62
2023/07/10 04:45:31;;;;;;;12.88;8.82;;;18.50;99.90;;;;;;6244854;23;20113;-61
2023/07/10 04:48:00;;;;;;;10.75;8.57;;;18.60;99.90;;;;;;6241910;23;20020;-62
2023/07/10 04:50:26;;;;;;;13.20;9.27;;;18.70;99.90;;;;;;6242654;23;20024;-61
2023/07/10 04:52:53;;;;;;;16.48;8.93;;;18.80;99.90;;;;;;6243961;23;20090;-61
2023/07/10 04:55:20;;;;;;;12.95;9.10;;;18.80;99.90;;;;;;6244615;23;20074;-61
2023/07/10 04:57:47;;;;;;;12.52;9.02;;;18.90;99.90;;;;;;6244519;23;20027;-61
2023/07/10 05:00:15;;;;;;;12.18;8.70;;;18.80;99.90;;;;;;6245102;23;20032;-60
2023/07/10 05:02:42;;;;;;;12.75;7.90;;;18.80;99.90;;;;;;6244128;22;20341;-61
2023/07/10 05:05:10;;;;;;;10.90;7.45;;;18.80;99.90;;;;;;6244485;23;20024;-61
2023/07/10 05:07:37;;;;;;;10.90;7.78;;;18.70;99.90;;;;;;6243049;23;20028;-61
2023/07/10 05:10:05;;;;;;;12.05;7.03;;;18.70;99.90;;;;;;6244151;23;20031;-61
2023/07/10 05:12:31;;;;;;;8.27;6.18;;;18.70;99.90;;;;;;6243215;23;20030;-61
2023/07/10 05:14:58;;;;;;;8.93;6.25;;;18.70;99.90;;;;;;6244275;23;20082;-61
2023/07/10 05:17:25;;;;;;;9.25;6.35;;;18.70;99.90;;;;;;6243730;23;20454;-61
2023/07/10 05:19:52;;;;;;;8.52;5.40;;;18.70;99.90;;;;;;6244958;23;20031;-61
2023/07/10 05:22:20;;;;;;;9.57;5.72;;;18.80;99.90;;;;;;6243001;23;20024;-62
2023/07/10 05:24:47;;;;;;;8.80;5.07;;;18.80;99.90;;;;;;6243938;23;20024;-62
2023/07/10 05:27:14;;;;;;;7.00;4.45;;;18.90;99.90;;;;;;6244863;23;20035;-62
2023/07/10 05:29:41;;;;;;;8.88;5.07;;;19.00;99.90;;;;;;6242795;23;20070;-62
2023/07/10 05:32:09;;;;;;;9.18;5.18;;;19.00;99.90;;;;;;6243376;23;20028;-62
2023/07/10 05:34:36;;;;;;;8.73;4.40;;;19.10;99.90;;;;;;6244978;22;20024;-62
2023/07/10 05:37:03;;;;;;;6.15;3.97;;;19.30;99.90;;;;;;6244635;23;20024;-61
2023/07/10 05:39:32;;;;;;;9.23;4.18;;;19.40;99.90;;;;;;6244028;23;20016;-62
2023/07/10 05:41:59;;;;;;;7.28;3.83;;;19.50;99.90;;;;;;6242438;23;20028;-62
2023/07/10 05:44:26;;;;;;;7.07;3.97;;;19.60;99.90;;;;;;6244690;22;20031;-61
2023/07/10 05:46:55;;;;;;;7.10;4.03;;;19.60;99.90;;;;;;6244032;23;20024;-63
2023/07/10 05:49:24;;;;;;;6.57;3.40;;;19.80;99.90;;;;;;6241984;23;20028;-62
2023/07/10 05:51:51;;;;;;;9.02;3.97;;;19.70;99.90;;;;;;6243025;23;20450;-61
2023/07/10 05:54:19;;;;;;;6.03;3.65;;;19.80;99.90;;;;;;6242535;23;20031;-61
2023/07/10 05:56:47;;;;;;;5.45;3.15;;;19.80;99.90;;;;;;6242056;23;20024;-60
2023/07/10 05:59:16;;;;;;;5.30;3.00;;;19.70;99.90;;;;;;6243927;23;20358;-61
2023/07/10 06:01:43;;;;;;;7.90;3.35;;;19.70;99.90;;;;;;6242328;23;20058;-61
2023/07/10 06:04:10;;;;;;;7.07;3.40;;;19.80;99.90;;;;;;6244172;23;20100;-61
2023/07/10 06:06:37;;;;;;;11.70;3.58;;;19.90;99.90;;;;;;6243486;23;20031;-61
2023/07/10 06:09:04;;;;;;;5.15;3.50;;;19.80;99.90;;;;;;6244259;23;20024;-62
2023/07/10 06:11:31;;;;;;;9.50;4.13;;;19.90;99.90;;;;;;6241793;23;20028;-62
2023/07/10 06:13:59;;;;;;;6.57;3.80;;;20.00;99.90;;;;;;6243793;23;20024;-62
2023/07/10 06:16:26;;;;;;;6.22;3.65;;;20.10;99.90;;;;;;6244096;23;20025;-61
2023/07/10 06:18:53;;;;;;;13.73;4.35;;;20.10;99.90;;;;;;6241369;23;20097;-61
2023/07/10 06:21:20;;;;;;;9.13;3.92;;;20.10;99.90;;;;;;6241699;23;20024;-61
2023/07/10 06:23:47;;;;;;;9.57;3.83;;;20.20;99.90;;;;;;6242350;23;20032;-61
2023/07/10 06:26:13;;;;;;;6.20;3.47;;;20.20;99.90;;;;;;6244586;22;20023;-62
2023/07/10 06:28:40;;;;;;;9.00;3.60;;;20.20;99.90;;;;;;6245406;23;20027;-62
2023/07/10 06:31:11;;;;;;;7.20;3.70;;;20.10;99.90;;;;;;6244298;23;20500;-62
2023/07/10 06:33:39;;;;;;;10.05;3.25;;;20.10;99.90;;;;;;6246298;23;20024;-61
2023/07/10 06:36:07;;;;;;;7.88;3.50;;;20.20;99.90;;;;;;6243876;23;20225;-62
2023/07/10 06:38:34;;;;;;;10.02;4.40;;;20.30;99.90;;;;;;6244013;23;20401;-63
2023/07/10 06:41:02;;;;;;;7.70;3.35;;;20.40;99.90;;;;;;6245549;23;20027;-61
2023/07/10 06:43:29;;;;;;;5.40;3.10;;;20.70;99.90;;;;;;6245432;23;20021;-62
2023/07/10 06:45:56;;;;;;;7.72;3.30;;;20.90;99.90;;;;;;6246341;22;20066;-61
2023/07/10 06:48:25;;;;;;;7.60;3.53;;;21.10;99.90;;;;;;6244875;23;20405;-61
2023/07/10 06:50:53;;;;;;;9.40;2.95;;;21.20;99.90;;;;;;6244083;23;20043;-61
2023/07/10 06:53:21;;;;;;;11.05;3.85;;;21.50;99.90;;;;;;6245085;23;20043;-62
2023/07/10 06:55:53;;;;;;;5.47;2.88;;;21.70;99.90;;;;;;6244642;23;20020;-61
2023/07/10 06:58:20;;;;;;;6.20;3.03;;;22.00;99.90;;;;;;6246970;23;20341;-61
2023/07/10 07:00:47;;;;;;;6.07;3.00;;;22.20;99.90;;;;;;6245273;23;20050;-61
2023/07/10 07:03:14;;;;;;;10.80;3.55;;;22.40;99.90;;;;;;6246263;23;20020;-62
2023/07/10 07:05:43;;;;;;;11.27;3.33;;;22.70;99.90;;;;;;6247207;23;20024;-62
2023/07/10 07:08:10;;;;;;;7.43;2.67;;;22.80;99.90;;;;;;6247058;23;20020;-62
2023/07/10 07:10:40;;;;;;;4.50;2.35;;;23.40;99.90;;;;;;6246242;23;20027;-62
2023/07/10 07:13:08;;;;;;;6.25;2.38;;;23.60;99.90;;;;;;6245118;23;20106;-62
2023/07/10 07:15:34;;;;;;;5.60;2.50;;;23.80;99.90;;;;;;6245737;23;20024;-62
2023/07/10 07:18:03;;;;;;;5.30;2.40;;;24.20;99.90;;;;;;6245965;23;20027;-63
2023/07/10 07:20:30;;;;;;;8.80;2.58;;;24.40;99.90;;;;;;6246988;23;20047;-63
2023/07/10 07:22:58;;;;;;;9.50;2.95;;;24.40;99.90;;;;;;6244991;23;20031;-63
2023/07/10 07:25:25;;;;;;;5.88;2.47;;;24.50;99.90;;;;;;6244245;23;20024;-62
2023/07/10 07:27:52;;;;;;;6.60;2.35;;;24.80;99.90;;;;;;6246730;23;20017;-63
2023/07/10 07:30:19;;;;;;;6.90;2.65;;;25.10;99.90;;;;;;6246222;23;20373;-63
2023/07/10 07:32:47;;;;;;;5.53;2.10;;;25.30;99.90;;;;;;6246862;23;20024;-61
2023/07/10 07:35:14;;;;;;;6.63;2.63;;;25.40;99.90;;;;;;6246918;22;20027;-63
2023/07/10 07:37:41;;;;;;;6.43;3.13;;;25.40;99.90;;;;;;6243691;23;20028;-62
2023/07/10 07:40:11;;;;;;;7.75;2.83;;;25.50;99.90;;;;;;6246764;23;20024;-63
2023/07/10 07:42:38;;;;;;;7.50;3.10;;;25.60;99.90;;;;;;6246419;22;20024;-63
2023/07/10 07:45:06;;;;;;;6.63;2.50;;;25.90;99.90;;;;;;6245682;22;20111;-62
2023/07/10 07:47:33;;;;;;;6.95;2.28;;;26.20;99.90;;;;;;6244861;23;20028;-62
2023/07/10 07:50:00;;;;;;;5.78;2.30;;;26.30;99.90;;;;;;6246221;23;20024;-62
2023/07/10 07:52:27;;;;;;;4.55;2.20;;;26.50;99.90;;;;;;6243972;23;20024;-62
2023/07/10 07:54:54;;;;;;;9.80;2.47;;;26.50;99.90;;;;;;6246661;23;20024;-62
2023/07/10 07:57:23;;;;;;;6.90;2.63;;;26.70;99.90;;;;;;6246281;23;20024;-62
2023/07/10 07:59:50;;;;;;;6.80;2.60;;;27.10;99.90;;;;;;6244146;23;20131;-62
2023/07/10 08:02:17;;;;;;;5.70;2.53;;;27.00;99.90;;;;;;6244621;23;20349;-61
2023/07/10 08:04:45;;;;;;;7.57;2.55;;;27.30;99.90;;;;;;6246588;23;20024;-62
2023/07/10 08:07:11;;;;;;;7.88;2.40;;;27.10;99.90;;;;;;6243801;23;20024;-61
2023/07/10 08:09:38;;;;;;;11.20;2.75;;;26.50;99.90;;;;;;6246429;23;20078;-61
2023/07/10 08:12:06;;;;;;;7.22;2.40;;;26.90;99.90;;;;;;6246405;23;20020;-62
2023/07/10 08:14:35;;;;;;;4.20;1.83;;;26.90;99.90;;;;;;6245527;22;20024;-62
2023/07/10 08:17:02;;;;;;;7.13;2.10;;;26.80;99.90;;;;;;6246436;23;20130;-63
2023/07/10 08:19:29;;;;;;;6.45;1.73;;;26.80;99.90;;;;;;6245584;23;20028;-62
2023/07/10 08:21:57;;;;;;;5.18;2.00;;;26.80;99.90;;;;;;6244391;23;20614;-61
2023/07/10 08:24:24;;;;;;;7.80;2.20;;;26.90;99.90;;;;;;6245969;23;20028;-62
2023/07/10 08:26:51;;;;;;;7.90;2.67;;;27.20;99.90;;;;;;6243484;23;20024;-62
2023/07/10 08:29:26;;;;;;;5.95;2.20;;;27.60;99.90;;;;;;6240831;23;20024;-61
2023/07/10 08:31:56;;;;;;;7.82;2.38;;;27.70;99.60;;;;;;6241491;22;20393;-61
2023/07/10 08:34:24;;;;;;;7.55;2.10;;;27.30;99.50;;;;;;6243699;23;20020;-62
2023/07/10 08:36:52;;;;;;;9.10;2.60;;;27.10;99.90;;;;;;6242849;23;20070;-61
2023/07/10 08:39:19;;;;;;;6.95;2.67;;;27.60;99.90;;;;;;6244659;22;20042;-62
2023/07/10 08:41:51;;;;;;;7.13;2.38;;;27.80;99.70;;;;;;6241802;23;20058;-62
2023/07/10 08:44:18;;;;;;;5.85;2.30;;;28.40;98.30;;;;;;6244592;23;20031;-62
2023/07/10 08:46:45;;;;;;;7.10;2.45;;;28.30;98.90;;;;;;6242694;23;20035;-63
2023/07/10 08:49:22;;;;;;;5.18;2.03;;;28.10;98.90;;;;;;6241767;23;20024;-63
2023/07/10 08:51:55;;;;;;;6.63;2.42;;;27.90;98.20;;;;;;6244278;22;20032;-62
2023/07/10 08:54:21;;;;;;;7.32;2.40;;;28.40;97.70;;;;;;6244943;22;20020;-63
2023/07/10 08:56:51;;;;;;;8.77;3.00;;;28.70;97.30;;;;;;6243955;23;20024;-63
2023/07/10 08:59:41;;;;;;;6.75;2.50;;;28.70;97.10;;;;;;6243975;23;20020;-63
2023/07/10 09:02:19;;;;;;;6.93;2.30;;;28.90;96.00;;;;;;6244214;23;20028;-63
2023/07/10 09:04:50;;;;;;;13.18;2.72;;;28.90;96.60;;;;;;6244552;23;20309;-62
2023/07/10 09:07:18;;;;;;;7.22;2.42;;;29.00;96.10;;;;;;6244679;23;20024;-63
2023/07/10 09:09:50;;;;;;;4.43;1.90;;;28.80;95.80;;;;;;6242912;23;20462;-61
2023/07/10 09:12:22;;;;;;;4.38;2.20;;;28.90;95.50;;;;;;6244693;23;20358;-62
2023/07/10 09:14:54;;;;;;;4.97;2.17;;;29.30;95.60;;;;;;6244402;23;20078;-62
2023/07/10 09:17:34;;;;;;;6.43;2.50;;;29.00;94.40;;;;;;6241604;23;20027;-62
2023/07/10 09:20:05;;;;;;;6.45;1.90;;;28.70;94.60;;;;;;6244010;23;20446;-63
2023/07/10 09:22:34;;;;;;;5.38;2.35;;;28.60;95.60;;;;;;6241857;23;20024;-62
2023/07/10 09:25:01;;;;;;;7.72;2.20;;;28.90;96.10;;;;;;6243771;23;20024;-63
2023/07/10 09:27:29;;;;;;;6.45;2.30;;;29.10;95.40;;;;;;6244242;23;20027;-63
2023/07/10 09:29:58;;;;;;;6.10;2.30;;;29.40;94.30;;;;;;6241944;23;20030;-63
2023/07/10 09:32:25;;;;;;;6.88;2.28;;;29.50;93.50;;;;;;6243698;23;20361;-63
2023/07/10 09:34:55;;;;;;;6.93;2.38;;;29.00;94.20;;;;;;6243093;23;20020;-63
2023/07/10 09:37:26;;;;;;;7.03;2.45;;;29.10;94.00;;;;;;6241072;23;20024;-62
2023/07/10 09:39:53;;;;;;;9.20;2.60;;;28.80;94.10;;;;;;6242408;23;20091;-63
2023/07/10 09:42:21;;;;;;;8.38;2.75;;;29.00;94.50;;;;;;6243527;23;20474;-62
2023/07/10 09:44:52;;;;;;;8.90;2.75;;;28.80;94.90;;;;;;6243807;23;20026;-62
2023/07/10 09:47:19;;;;;;;5.65;2.20;;;28.90;94.50;;;;;;6243709;23;20466;-62
2023/07/10 09:49:50;;;;;;;5.35;2.13;;;29.40;94.10;;;;;;6244421;23;20454;-62
2023/07/10 09:52:25;;;;;;;6.35;2.10;;;29.30;93.50;;;;;;6243385;23;20433;-62
2023/07/10 09:55:01;;;;;;;6.95;2.50;;;28.90;94.10;;;;;;6244173;23;20024;-63
2023/07/10 09:57:28;;;;;;;9.82;2.55;;;29.30;93.60;;;;;;6240908;23;20028;-63
2023/07/10 09:59:57;;;;;;;8.95;3.03;;;29.60;93.90;;;;;;6241884;23;20362;-63
2023/07/10 10:02:26;;;;;;;5.83;2.30;;;29.70;93.60;;;;;;6244169;22;20099;-63
2023/07/10 10:05:01;;;;;;;10.90;3.15;;;29.30;94.20;;;;;;6244447;22;20253;-63
2023/07/10 10:07:36;;;;;;;9.07;2.78;;;29.10;94.30;;;;;;6244083;23;20028;-63
2023/07/10 10:10:23;;;;;;;9.07;2.53;;;28.80;93.80;;;;;;6244402;23;20020;-63
2023/07/10 10:12:59;;;;;;;7.30;2.80;;;28.30;95.00;;;;;;6242084;23;20043;-62
2023/07/10 10:15:41;;;;;;;10.05;3.30;;;28.30;95.10;;;;;;6242079;23;20024;-62
2023/07/10 10:18:17;;;;;;;9.82;2.60;;;28.60;93.80;;;;;;6242273;23;20501;-62
2023/07/10 10:20:45;;;;;;;8.05;2.53;;;29.10;93.80;;;;;;6243975;23;20046;-62
2023/07/10 10:23:29;;;;;;;7.10;2.40;;;29.40;93.90;;;;;;6241284;23;20024;-62
2023/07/10 10:26:09;;;;;;;12.35;2.85;;;29.40;92.90;;;;;;6244097;23;20473;-61
2023/07/10 10:28:49;;;;;;;6.85;2.47;;;29.60;94.00;;;;;;6243880;23;20026;-62
2023/07/10 10:31:23;;;;;;;8.95;2.85;;;30.00;93.50;;;;;;6243908;23;20338;-62
2023/07/10 10:33:59;;;;;;;7.13;2.55;;;29.90;92.90;;;;;;6241515;23;20032;-62
2023/07/10 10:36:34;;;;;;;7.57;2.60;;;29.40;92.80;;;;;;6244354;22;20032;-62
2023/07/10 10:39:14;;;;;;;6.65;2.17;;;29.20;92.30;;;;;;6241886;23;20394;-62
2023/07/10 10:41:47;;;;;;;9.32;2.78;;;29.50;92.50;;;;;;6242838;22;20074;-62
2023/07/10 10:44:27;;;;;;;7.68;2.75;;;29.80;92.30;;;;;;6244269;22;20031;-62
2023/07/10 10:47:11;;;;;;;6.75;2.58;;;29.90;92.30;;;;;;6243522;23;20341;-63
2023/07/10 10:49:54;;;;;;;6.95;2.22;;;29.30;92.60;;;;;;6244089;23;20017;-64
2023/07/10 10:52:31;;;;;;;7.68;2.67;;;29.30;91.70;;;;;;6243247;22;20031;-63
2023/07/10 10:55:19;;;;;;;10.45;2.50;;;29.30;91.50;;;;;;6241195;23;20074;-63
2023/07/10 10:57:52;;;;;;;5.53;2.13;;;29.70;91.00;;;;;;6244002;23;20028;-61
2023/07/10 11:00:35;;;;;;;11.88;2.38;;;30.20;91.60;;;;;;6243766;23;20016;-62
2023/07/10 11:03:15;;;;;;;7.38;2.58;;;30.10;91.50;;;;;;6241340;23;20478;-61
2023/07/10 11:05:46;;;;;;;7.93;2.40;;;30.30;91.90;;;;;;6243685;23;20032;-62
2023/07/10 11:08:19;;;;;;;7.35;2.03;;;29.80;91.70;;;;;;6244152;23;20031;-62
2023/07/10 11:10:49;;;;;;;5.95;2.13;;;29.90;91.60;;;;;;6243818;23;20024;-62
2023/07/10 11:13:23;;;;;;;7.50;2.35;;;29.30;91.10;;;;;;6244435;23;20073;-62
2023/07/10 11:15:50;;;;;;;9.02;2.65;;;29.30;91.20;;;;;;6243078;23;20027;-62
2023/07/10 11:18:17;;;;;;;7.13;2.13;;;29.60;91.00;;;;;;6245549;23;20028;-62
2023/07/10 11:20:45;;;;;;;8.45;2.80;;;29.60;91.20;;;;;;6245484;23;20446;-62
2023/07/10 11:23:34;;;;;;;8.88;2.40;;;30.40;90.90;;;;;;6243135;23;20024;-62
2023/07/10 11:26:07;;;;;;;8.60;2.13;;;30.20;89.40;;;;;;6238624;23;20028;-62
2023/07/10 11:28:35;;;;;;;8.50;2.40;;;29.80;90.10;;;;;;6246090;23;20070;-62
2023/07/10 11:31:28;;;;;;;6.18;1.65;;;30.00;90.00;;;;;;6244808;23;20027;-62
2023/07/10 11:34:24;;;;;;;6.40;2.20;;;30.50;89.00;;;;;;6245510;23;20024;-62
2023/07/10 11:36:51;;;;;;;6.40;1.95;;;31.00;89.50;;;;;;6194429;23;20390;-63
2023/07/10 11:39:20;;;;;;;6.68;2.28;;;31.10;88.40;;;;;;6245189;23;20095;-63
2023/07/10 11:42:16;;;;;;;5.43;1.63;;;30.80;87.30;;;;;;6243567;23;20028;-62
2023/07/10 11:44:46;;;;;;;6.20;1.90;;;30.40;88.10;;;;;;6242784;23;20056;-63
2023/07/10 11:47:23;;;;;;;7.18;1.70;;;30.10;88.50;;;;;;6243358;23;20035;-63
2023/07/10 11:50:22;;;;;;;5.28;1.77;;;30.40;88.30;;;;;;6245938;23;20062;-63
2023/07/10 11:53:05;;;;;;;;;;;30.50;87.30;;;;;;6243240;23;20028;-63
2023/07/10 11:55:32;;;;;;;6.93;2.08;;;30.40;86.10;;;;;;6245191;23;19924;-62
2023/07/10 11:58:25;;;;;;;5.65;1.77;;;30.40;87.30;;;;;;6244092;23;20032;-63
2023/07/10 12:00:58;;;;;;;5.45;1.73;;;30.90;85.40;;;;;;6245075;22;20346;-63
2023/07/10 12:03:25;;;;;;;8.07;1.92;;;31.50;86.80;;;;;;6243425;23;20450;-63
2023/07/10 12:05:52;;;;;;;4.15;1.65;;;31.90;85.60;;;;;;6243926;23;20032;-63
2023/07/10 12:08:23;;;;;;;8.23;2.10;;;32.30;84.50;;;;;;6245470;23;20024;-61
2023/07/10 12:10:51;;;;;;;6.30;2.22;;;32.50;85.40;;;;;;6243433;23;20462;-62
2023/07/10 12:13:21;;;;;;;9.48;1.92;;;32.10;84.20;;;;;;6243865;23;20021;-62
2023/07/10 12:15:52;;;;;;;7.22;1.90;;;30.80;83.60;;;;;;6242785;23;20020;-63
2023/07/10 12:18:22;;;;;;;4.07;1.65;;;31.20;86.30;;;;;;6245319;23;20028;-61
2023/07/10 12:20:50;;;;;;;5.72;1.70;;;31.20;84.40;;;;;;6242462;23;20027;-64
2023/07/10 12:23:17;;;;;;;4.38;1.83;;;31.30;84.60;;;;;;6243606;23;20090;-63
2023/07/10 12:25:48;;;;;;;4.63;1.35;;;31.70;84.60;;;;;;6244318;23;20458;-63
2023/07/10 12:28:18;;;;;;;6.75;1.75;;;31.70;80.50;;;;;;6245031;23;20027;-64
2023/07/10 12:30:50;;;;;;;8.07;1.92;;;31.80;80.80;;;;;;6244946;22;20035;-63
2023/07/10 12:33:37;;;;;;;5.38;1.85;;;31.50;82.30;;;;;;6242079;23;20039;-63
2023/07/10 12:36:18;;;;;;;8.57;1.60;;;31.40;82.80;;;;;;6244516;23;20055;-63
2023/07/10 12:38:46;;;;;;;11.50;1.65;;;31.20;80.90;;;;;;6243301;23;21884;-63
2023/07/10 12:41:13;;;;;;;5.70;1.50;;;31.30;82.40;;;;;;6244188;22;20358;-63
2023/07/10 12:43:47;;;;;;;7.38;1.70;;;30.80;81.00;;;;;;6244917;23;20020;-62
2023/07/10 12:46:18;;;;;;;5.43;1.60;;;30.70;82.80;;;;;;6244158;23;20035;-62
2023/07/10 12:48:46;;;;;;;4.50;1.42;;;30.10;83.30;;;;;;6244159;23;20086;-62
2023/07/10 12:51:22;;;;;;;7.68;1.48;;;29.60;83.30;;;;;;6242127;23;20039;-63
2023/07/10 12:53:49;;;;;;;6.97;1.73;;;30.30;83.80;;;;;;6244594;23;20034;-62